createdAt,value
2023-03-03T00:01:28.834Z,100.00
2023-03-03T00:03:55.309Z,100.00
2023-03-03T00:06:22.004Z,100.00
2023-03-03T00:08:48.391Z,100.00
2023-03-03T00:11:14.802Z,100.00
2023-03-03T00:13:50.194Z,100.00
2023-03-03T00:16:25.226Z,100.00
2023-03-03T00:18:52.699Z,100.00
2023-03-03T00:21:29.160Z,100.00
2023-03-03T00:24:10.892Z,100.00
2023-03-03T00:26:43.937Z,100.00
2023-03-03T00:29:33.391Z,100.00
2023-03-03T00:32:15.593Z,100.00
2023-03-03T00:34:43.573Z,100.00
2023-03-03T00:37:35.407Z,100.00
2023-03-03T00:40:24.028Z,100.00
2023-03-03T00:42:59.443Z,100.00
2023-03-03T00:45:48.496Z,100.00
2023-03-03T00:48:31.160Z,100.00
2023-03-03T00:50:59.699Z,100.00
2023-03-03T00:53:30.547Z,100.00
2023-03-03T00:55:57.822Z,100.00
2023-03-03T00:58:25.439Z,100.00
2023-03-03T01:00:53.878Z,100.00
2023-03-03T01:03:26.381Z,100.00
2023-03-03T01:05:54.349Z,100.00
2023-03-03T01:08:22.194Z,100.00
2023-03-03T01:10:51.664Z,100.00
2023-03-03T01:13:22.120Z,100.00
2023-03-03T01:15:48.567Z,100.00
2023-03-03T01:18:15.181Z,100.00
2023-03-03T01:20:41.986Z,100.00
2023-03-03T01:23:09.150Z,100.00
2023-03-03T01:25:36.028Z,100.00
2023-03-03T01:28:02.662Z,100.00
2023-03-03T01:30:29.178Z,100.00
2023-03-03T01:32:55.713Z,100.00
2023-03-03T01:35:22.138Z,100.00
2023-03-03T01:37:48.629Z,100.00
2023-03-03T01:40:20.345Z,100.00
2023-03-03T01:42:47.940Z,100.00
2023-03-03T01:45:20.050Z,100.00
2023-03-03T01:48:11.000Z,100.00
2023-03-03T01:50:55.065Z,100.00
2023-03-03T01:53:38.623Z,100.00
2023-03-03T01:56:07.483Z,100.00
2023-03-03T01:58:59.970Z,100.00
2023-03-03T02:01:28.469Z,100.00
2023-03-03T02:03:56.220Z,100.00
2023-03-03T02:06:28.445Z,100.00
2023-03-03T02:09:01.754Z,100.00
2023-03-03T02:11:32.241Z,100.00
2023-03-03T02:13:58.854Z,100.00
2023-03-03T02:16:25.381Z,100.00
2023-03-03T02:21:35.462Z,100.00
2023-03-03T02:24:16.166Z,100.00
2023-03-03T02:26:43.033Z,100.00
2023-03-03T02:29:10.568Z,100.00
2023-03-03T02:31:40.523Z,100.00
2023-03-03T02:34:07.266Z,100.00
2023-03-03T02:36:36.608Z,100.00
2023-03-03T02:39:19.487Z,100.00
2023-03-03T02:41:53.257Z,100.00
2023-03-03T02:44:23.618Z,100.00
2023-03-03T02:46:52.370Z,100.00
2023-03-03T02:49:22.568Z,100.00
2023-03-03T02:51:49.559Z,100.00
2023-03-03T02:54:17.210Z,100.00
2023-03-03T02:56:43.635Z,100.00
2023-03-03T02:59:10.750Z,100.00
2023-03-03T03:01:42.780Z,100.00
2023-03-03T03:04:19.263Z,100.00
2023-03-03T03:06:49.230Z,100.00
2023-03-03T03:09:17.750Z,100.00
2023-03-03T03:11:45.303Z,100.00
2023-03-03T03:14:14.764Z,100.00
2023-03-03T03:16:43.098Z,100.00
2023-03-03T03:19:10.464Z,100.00
2023-03-03T03:21:38.418Z,100.00
2023-03-03T03:24:06.725Z,100.00
2023-03-03T03:26:34.672Z,100.00
2023-03-03T03:29:02.124Z,100.00
2023-03-03T03:31:28.687Z,100.00
2023-03-03T03:33:55.187Z,100.00
2023-03-03T03:36:22.983Z,100.00
2023-03-03T03:38:50.003Z,100.00
2023-03-03T03:41:16.429Z,100.00
2023-03-03T03:43:43.036Z,100.00
2023-03-03T03:46:09.764Z,100.00
2023-03-03T03:48:36.441Z,100.00
2023-03-03T03:51:04.958Z,100.00
2023-03-03T03:53:32.309Z,100.00
2023-03-03T03:55:58.953Z,100.00
2023-03-03T03:58:25.776Z,100.00
2023-03-03T04:01:03.790Z,100.00
2023-03-03T04:03:30.570Z,100.00
2023-03-03T04:05:57.077Z,100.00
2023-03-03T04:08:23.710Z,100.00
2023-03-03T04:10:50.268Z,100.00
2023-03-03T04:13:17.599Z,100.00
2023-03-03T04:15:45.155Z,100.00
2023-03-03T04:18:12.065Z,100.00
2023-03-03T04:20:40.052Z,100.00
2023-03-03T04:23:07.287Z,100.00
2023-03-03T04:25:34.058Z,100.00
2023-03-03T04:28:03.567Z,100.00
2023-03-03T04:30:32.443Z,100.00
2023-03-03T04:32:59.333Z,100.00
2023-03-03T04:35:26.945Z,100.00
2023-03-03T04:37:53.791Z,100.00
2023-03-03T04:40:20.522Z,100.00
2023-03-03T04:42:49.457Z,100.00
2023-03-03T04:45:16.049Z,100.00
2023-03-03T04:47:45.004Z,100.00
2023-03-03T04:50:12.477Z,100.00
2023-03-03T04:52:39.124Z,100.00
2023-03-03T04:55:10.293Z,100.00
2023-03-03T04:57:37.538Z,100.00
2023-03-03T05:00:04.869Z,100.00
2023-03-03T05:02:31.387Z,100.00
2023-03-03T05:04:57.907Z,100.00
2023-03-03T05:07:24.681Z,100.00
2023-03-03T05:09:51.086Z,100.00
2023-03-03T05:12:17.521Z,100.00
2023-03-03T05:14:43.909Z,100.00
2023-03-03T05:17:10.290Z,100.00
2023-03-03T05:19:36.722Z,100.00
2023-03-03T05:22:03.126Z,100.00
2023-03-03T05:24:29.608Z,100.00
2023-03-03T05:26:55.993Z,100.00
2023-03-03T05:29:22.486Z,100.00
2023-03-03T05:31:49.003Z,100.00
2023-03-03T05:34:15.540Z,100.00
2023-03-03T05:36:41.983Z,100.00
2023-03-03T05:39:08.375Z,100.00
2023-03-03T05:41:36.801Z,100.00
2023-03-03T05:44:03.591Z,100.00
2023-03-03T05:46:30.085Z,100.00
2023-03-03T05:48:56.512Z,100.00
2023-03-03T05:51:22.931Z,100.00
2023-03-03T05:53:49.378Z,100.00
2023-03-03T05:56:15.789Z,100.00
2023-03-03T05:58:42.198Z,100.00
2023-03-03T06:01:08.670Z,100.00
2023-03-03T06:03:35.141Z,100.00
2023-03-03T06:06:01.589Z,100.00
2023-03-03T06:08:28.049Z,100.00
2023-03-03T06:10:54.469Z,100.00
2023-03-03T06:13:20.913Z,100.00
2023-03-03T06:15:47.468Z,100.00
2023-03-03T06:18:13.872Z,100.00
2023-03-03T06:20:40.346Z,100.00
2023-03-03T06:23:06.832Z,100.00
2023-03-03T06:25:35.632Z,100.00
2023-03-03T06:28:03.074Z,100.00
2023-03-03T06:30:30.600Z,100.00
2023-03-03T06:32:57.067Z,100.00
2023-03-03T06:35:23.497Z,100.00
2023-03-03T06:37:50.810Z,100.00
2023-03-03T06:40:17.470Z,100.00
2023-03-03T06:42:43.877Z,100.00
2023-03-03T06:45:10.644Z,100.00
2023-03-03T06:47:37.036Z,100.00
2023-03-03T06:50:03.672Z,100.00
2023-03-03T06:52:30.062Z,100.00
2023-03-03T06:54:58.746Z,100.00
2023-03-03T06:57:34.560Z,100.00
2023-03-03T07:00:20.839Z,100.00
2023-03-03T07:02:53.590Z,100.00
2023-03-03T07:05:20.059Z,100.00
2023-03-03T07:07:46.517Z,100.00
2023-03-03T07:10:28.030Z,100.00
2023-03-03T07:12:59.418Z,100.00
2023-03-03T07:15:36.007Z,100.00
2023-03-03T07:18:03.231Z,100.00
2023-03-03T07:20:36.331Z,100.00
2023-03-03T07:23:18.954Z,100.00
2023-03-03T07:25:46.614Z,100.00
2023-03-03T07:28:29.785Z,100.00
2023-03-03T07:30:58.220Z,100.00
2023-03-03T07:33:27.677Z,100.00
2023-03-03T07:35:56.986Z,100.00
2023-03-03T07:38:30.451Z,100.00
2023-03-03T07:41:00.702Z,100.00
2023-03-03T07:43:37.776Z,100.00
2023-03-03T07:46:10.902Z,100.00
2023-03-03T07:48:41.972Z,100.00
2023-03-03T07:51:22.362Z,100.00
2023-03-03T07:53:49.385Z,100.00
2023-03-03T07:56:25.133Z,100.00
2023-03-03T07:58:51.853Z,100.00
2023-03-03T08:01:40.873Z,100.00
2023-03-03T08:04:21.748Z,100.00
2023-03-03T08:06:56.308Z,100.00
2023-03-03T08:09:31.112Z,100.00
2023-03-03T08:12:20.257Z,100.00
2023-03-03T08:14:47.042Z,100.00
2023-03-03T08:17:26.274Z,100.00
2023-03-03T08:19:54.520Z,100.00
2023-03-03T08:22:36.045Z,100.00
2023-03-03T08:25:02.527Z,100.00
2023-03-03T08:27:28.964Z,100.00
2023-03-03T08:29:55.363Z,100.00
2023-03-03T08:32:22.077Z,100.00
2023-03-03T08:34:48.839Z,100.00
2023-03-03T08:37:15.278Z,100.00
2023-03-03T08:39:41.723Z,100.00
2023-03-03T08:42:08.223Z,100.00
2023-03-03T08:44:34.623Z,100.00
2023-03-03T08:47:01.180Z,100.00
2023-03-03T08:49:27.582Z,100.00
2023-03-03T08:51:54.600Z,100.00
2023-03-03T08:54:20.992Z,100.00
2023-03-03T08:56:47.389Z,100.00
2023-03-03T08:59:13.785Z,100.00
2023-03-03T09:01:40.240Z,100.00
2023-03-03T09:04:06.800Z,100.00
2023-03-03T09:06:33.363Z,100.00
2023-03-03T09:08:59.770Z,100.00
2023-03-03T09:11:28.176Z,100.00
2023-03-03T09:14:02.477Z,100.00
2023-03-03T09:16:35.662Z,100.00
2023-03-03T09:19:16.584Z,100.00
2023-03-03T09:21:43.173Z,100.00
2023-03-03T09:24:22.894Z,100.00
2023-03-03T09:26:49.320Z,100.00
2023-03-03T09:29:23.775Z,100.00
2023-03-03T09:31:52.663Z,100.00
2023-03-03T09:34:25.487Z,100.00
2023-03-03T09:36:55.115Z,100.00
2023-03-03T09:39:26.907Z,100.00
2023-03-03T09:42:19.522Z,100.00
2023-03-03T09:44:57.850Z,100.00
2023-03-03T09:47:43.981Z,100.00
2023-03-03T09:50:23.997Z,100.00
2023-03-03T09:53:02.346Z,100.00
2023-03-03T09:56:00.958Z,100.00
2023-03-03T09:58:52.801Z,100.00
2023-03-03T10:01:45.494Z,100.00
2023-03-03T10:04:31.220Z,100.00
2023-03-03T10:07:30.031Z,100.00
2023-03-03T10:10:22.555Z,100.00
2023-03-03T10:13:05.705Z,100.00
2023-03-03T10:15:53.487Z,100.00
2023-03-03T10:18:39.308Z,100.00
2023-03-03T10:21:10.800Z,100.00
2023-03-03T10:23:54.892Z,100.00
2023-03-03T10:26:44.197Z,100.00
2023-03-03T10:29:34.074Z,100.00
2023-03-03T10:32:19.143Z,100.00
2023-03-03T10:34:54.420Z,100.00
2023-03-03T10:37:47.637Z,100.00
2023-03-03T10:40:55.874Z,100.00
2023-03-03T10:43:36.922Z,100.00
2023-03-03T10:46:42.357Z,100.00
2023-03-03T10:49:18.811Z,100.00
2023-03-03T10:52:01.072Z,100.00
2023-03-03T10:54:52.686Z,100.00
2023-03-03T10:57:30.740Z,100.00
2023-03-03T11:00:16.082Z,100.00
2023-03-03T11:03:11.624Z,100.00
2023-03-03T11:05:55.027Z,100.00
2023-03-03T11:08:29.820Z,100.00
2023-03-03T11:11:34.449Z,100.00
2023-03-03T11:14:12.970Z,100.00
2023-03-03T11:17:05.568Z,100.00
2023-03-03T11:19:57.621Z,100.00
2023-03-03T11:22:49.604Z,100.00
2023-03-03T11:25:25.149Z,100.00
2023-03-03T11:28:06.705Z,100.00
2023-03-03T11:31:01.121Z,100.00
2023-03-03T11:33:45.600Z,100.00
2023-03-03T11:36:20.816Z,100.00
2023-03-03T11:39:10.786Z,100.00
2023-03-03T11:42:02.074Z,100.00
2023-03-03T11:44:40.660Z,100.00
2023-03-03T11:47:31.417Z,100.00
2023-03-03T11:50:14.042Z,100.00
2023-03-03T11:52:53.285Z,100.00
2023-03-03T11:55:35.996Z,100.00
2023-03-03T11:58:21.960Z,100.00
2023-03-03T12:01:03.990Z,100.00
2023-03-03T12:03:39.609Z,100.00
2023-03-03T12:06:34.123Z,100.00
2023-03-03T12:09:11.796Z,100.00
2023-03-03T12:11:50.761Z,100.00
2023-03-03T12:14:37.595Z,100.00
2023-03-03T12:17:21.561Z,100.00
2023-03-03T12:20:29.777Z,100.00
2023-03-03T12:23:07.561Z,100.00
2023-03-03T12:25:43.872Z,100.00
2023-03-03T12:28:19.513Z,100.00
2023-03-03T12:31:09.000Z,100.00
2023-03-03T12:33:54.003Z,100.00
2023-03-03T12:36:32.388Z,100.00
2023-03-03T12:39:32.443Z,100.00
2023-03-03T12:42:14.198Z,100.00
2023-03-03T12:44:59.432Z,100.00
2023-03-03T12:47:40.158Z,100.00
2023-03-03T12:50:09.324Z,100.00
2023-03-03T12:53:02.698Z,100.00
2023-03-03T12:55:55.194Z,100.00
2023-03-03T12:58:56.352Z,100.00
2023-03-03T13:01:39.901Z,100.00
2023-03-03T13:04:29.852Z,100.00
2023-03-03T13:07:18.192Z,100.00
2023-03-03T13:10:02.026Z,100.00
2023-03-03T13:12:35.260Z,100.00
2023-03-03T13:15:20.077Z,100.00
2023-03-03T13:18:10.953Z,100.00
2023-03-03T13:20:45.313Z,100.00
2023-03-03T13:23:53.264Z,100.00
2023-03-03T13:26:32.543Z,100.00
2023-03-03T13:29:20.398Z,100.00
2023-03-03T13:31:55.865Z,100.00
2023-03-03T13:34:42.751Z,100.00
2023-03-03T13:37:23.826Z,100.00
2023-03-03T13:40:05.604Z,100.00
2023-03-03T13:42:44.261Z,99.81
2023-03-03T13:45:31.231Z,100.00
2023-03-03T13:48:19.468Z,99.78
2023-03-03T13:50:53.363Z,98.53
2023-03-03T13:53:36.159Z,98.52
2023-03-03T13:56:15.238Z,98.44
2023-03-03T13:58:53.648Z,97.98
2023-03-03T14:01:38.338Z,97.87
2023-03-03T14:04:31.568Z,97.68
2023-03-03T14:07:08.054Z,98.52
2023-03-03T14:09:53.156Z,98.51
2023-03-03T14:12:31.372Z,97.79
2023-03-03T14:15:17.340Z,97.24
2023-03-03T14:18:17.131Z,97.95
2023-03-03T14:20:54.875Z,97.71
2023-03-03T14:23:30.927Z,97.36
2023-03-03T14:26:10.169Z,97.59
2023-03-03T14:28:44.082Z,96.68
2023-03-03T14:31:38.363Z,96.26
2023-03-03T14:34:22.879Z,95.23
2023-03-03T14:36:58.067Z,94.79
2023-03-03T14:39:37.184Z,94.73
2023-03-03T14:42:29.813Z,95.95
2023-03-03T14:44:59.289Z,95.33
2023-03-03T14:47:27.542Z,94.80
2023-03-03T14:49:56.592Z,95.33
2023-03-03T14:52:26.196Z,94.85
2023-03-03T14:54:56.119Z,94.63
2023-03-03T14:57:45.959Z,94.05
2023-03-03T15:00:12.570Z,94.43
2023-03-03T15:03:01.992Z,94.00
2023-03-03T15:05:31.069Z,93.64
2023-03-03T15:08:08.902Z,94.66
2023-03-03T15:10:38.514Z,94.15
2023-03-03T15:13:20.212Z,94.29
2023-03-03T15:16:00.469Z,93.06
2023-03-03T15:18:29.242Z,93.25
2023-03-03T15:21:08.061Z,93.06
2023-03-03T15:23:42.742Z,92.99
2023-03-03T15:26:50.387Z,92.69
2023-03-03T15:29:30.507Z,93.21
2023-03-03T15:32:17.812Z,92.61
2023-03-03T15:34:51.272Z,92.20
2023-03-03T15:37:47.558Z,92.00
2023-03-03T15:40:29.257Z,91.15
2023-03-03T15:43:17.552Z,91.35
2023-03-03T15:45:43.906Z,91.90
2023-03-03T15:48:46.312Z,91.09
2023-03-03T15:52:02.160Z,90.53
2023-03-03T15:54:41.219Z,90.56
2023-03-03T15:57:21.662Z,90.33
2023-03-03T16:00:02.832Z,90.67
2023-03-03T16:02:53.640Z,90.57
2023-03-03T16:05:45.845Z,89.81
2023-03-03T16:08:25.924Z,90.71
2023-03-03T16:11:09.320Z,90.48
2023-03-03T16:13:59.600Z,90.70
2023-03-03T16:16:52.086Z,90.30
2023-03-03T16:20:01.970Z,90.87
2023-03-03T16:23:10.072Z,91.06
2023-03-03T16:25:58.234Z,91.15
2023-03-03T16:28:34.780Z,91.33
2023-03-03T16:31:21.973Z,91.17
2023-03-03T16:34:06.006Z,91.69
2023-03-03T16:36:38.599Z,91.77
2023-03-03T16:39:38.801Z,91.66
2023-03-03T16:42:25.920Z,92.14
2023-03-03T16:45:18.330Z,92.01
2023-03-03T16:47:56.838Z,92.71
2023-03-03T16:51:00.874Z,92.24
2023-03-03T16:53:45.821Z,91.72
2023-03-03T16:56:18.256Z,92.27
2023-03-03T16:59:28.547Z,92.36
2023-03-03T17:02:12.674Z,92.27
2023-03-03T17:05:05.816Z,92.42
2023-03-03T17:08:00.135Z,92.64
2023-03-03T17:10:30.309Z,92.50
2023-03-03T17:13:05.119Z,92.36
2023-03-03T17:15:39.415Z,92.67
2023-03-03T17:18:25.410Z,93.24
2023-03-03T17:20:58.000Z,94.28
2023-03-03T17:23:34.921Z,94.47
2023-03-03T17:26:20.638Z,94.47
2023-03-03T17:29:07.393Z,94.59
2023-03-03T17:31:53.893Z,95.18
2023-03-03T17:34:46.633Z,95.19
2023-03-03T17:37:27.964Z,95.63
2023-03-03T17:40:05.443Z,94.97
2023-03-03T17:42:47.704Z,95.93
2023-03-03T17:45:15.886Z,95.99
2023-03-03T17:47:50.595Z,95.49
2023-03-03T17:50:41.872Z,95.75
2023-03-03T17:53:36.434Z,96.51
2023-03-03T17:56:16.129Z,97.18
2023-03-03T17:59:02.618Z,96.21
2023-03-03T18:01:57.486Z,96.92
2023-03-03T18:04:52.240Z,97.09
2023-03-03T18:07:45.848Z,96.60
2023-03-03T18:10:42.991Z,96.88
2023-03-03T18:13:30.992Z,97.34
2023-03-03T18:16:18.112Z,96.51
2023-03-03T18:19:18.153Z,96.55
2023-03-03T18:22:17.085Z,96.90
2023-03-03T18:24:49.495Z,95.99
2023-03-03T18:27:24.708Z,95.73
2023-03-03T18:30:12.844Z,96.25
2023-03-03T18:33:01.155Z,97.19
2023-03-03T18:35:33.496Z,97.24
2023-03-03T18:38:15.049Z,97.85
2023-03-03T18:40:58.232Z,98.11
2023-03-03T18:43:39.843Z,98.12
2023-03-03T18:46:29.133Z,97.71
2023-03-03T18:49:09.875Z,98.21
2023-03-03T18:51:39.348Z,98.81
2023-03-03T18:54:30.903Z,98.02
2023-03-03T18:56:57.784Z,97.08
2023-03-03T18:59:30.273Z,97.97
2023-03-03T19:02:29.918Z,97.71
2023-03-03T19:05:05.865Z,98.00
2023-03-03T19:07:49.258Z,97.83
2023-03-03T19:10:46.825Z,98.17
2023-03-03T19:13:32.073Z,98.56
2023-03-03T19:16:08.118Z,98.60
2023-03-03T19:18:43.248Z,97.51
2023-03-03T19:21:12.721Z,98.09
2023-03-03T19:24:00.874Z,97.35
2023-03-03T19:26:30.316Z,98.19
2023-03-03T19:29:05.498Z,98.16
2023-03-03T19:31:34.985Z,97.41
2023-03-03T19:34:19.160Z,98.43
2023-03-03T19:37:05.644Z,98.72
2023-03-03T19:39:50.732Z,98.25
2023-03-03T19:42:30.948Z,96.98
2023-03-03T19:45:31.962Z,97.22
2023-03-03T19:48:22.441Z,97.83
2023-03-03T19:51:25.671Z,97.40
2023-03-03T19:54:29.858Z,97.42
2023-03-03T19:57:01.833Z,96.94
2023-03-03T19:59:59.033Z,96.68
2023-03-03T20:02:55.245Z,97.04
2023-03-03T20:05:47.968Z,97.28
2023-03-03T20:08:21.198Z,97.66
2023-03-03T20:10:59.646Z,97.48
2023-03-03T20:13:30.852Z,97.22
2023-03-03T20:16:04.428Z,97.19
2023-03-03T20:19:01.515Z,97.12
2023-03-03T20:21:59.080Z,96.91
2023-03-03T20:25:03.255Z,96.89
2023-03-03T20:27:47.558Z,97.00
2023-03-03T20:30:26.264Z,96.65
2023-03-03T20:33:10.617Z,96.36
2023-03-03T20:36:05.381Z,97.19
2023-03-03T20:38:45.604Z,97.20
2023-03-03T20:41:39.424Z,96.50
2023-03-03T20:44:19.026Z,96.73
2023-03-03T20:46:57.507Z,96.75
2023-03-03T20:50:15.400Z,96.42
2023-03-03T20:53:14.018Z,96.31
2023-03-03T20:55:57.830Z,95.64
2023-03-03T20:58:36.724Z,95.74
2023-03-03T21:01:09.504Z,94.96
2023-03-03T21:03:45.190Z,94.63
2023-03-03T21:06:15.504Z,95.09
2023-03-03T21:08:53.461Z,94.36
2023-03-03T21:11:31.805Z,93.83
2023-03-03T21:13:59.439Z,93.72
2023-03-03T21:16:25.852Z,93.37
2023-03-03T21:19:00.375Z,93.15
2023-03-03T21:21:29.727Z,92.85
2023-03-03T21:23:56.729Z,93.20
2023-03-03T21:26:49.496Z,92.25
2023-03-03T21:29:27.600Z,92.14
2023-03-03T21:32:05.364Z,92.27
2023-03-03T21:34:32.903Z,92.26
2023-03-03T21:37:01.231Z,92.16
2023-03-03T21:39:36.155Z,92.63
2023-03-03T21:42:08.779Z,92.76
2023-03-03T21:44:39.626Z,94.07
2023-03-03T21:47:08.799Z,93.53
2023-03-03T21:49:35.845Z,93.27
2023-03-03T21:52:02.876Z,94.28
2023-03-03T21:54:29.385Z,95.25
2023-03-03T21:56:55.776Z,94.94
2023-03-03T21:59:22.265Z,94.77
2023-03-03T22:01:48.680Z,94.78
2023-03-03T22:04:15.533Z,94.73
2023-03-03T22:06:42.161Z,95.03
2023-03-03T22:09:08.577Z,95.33
2023-03-03T22:11:35.016Z,95.69
2023-03-03T22:14:01.711Z,96.06
2023-03-03T22:16:28.157Z,96.26
2023-03-03T22:18:54.575Z,96.64
2023-03-03T22:21:21.925Z,96.13
2023-03-03T22:23:48.336Z,96.74
2023-03-03T22:26:14.719Z,97.18
2023-03-03T22:28:43.818Z,97.68
2023-03-03T22:31:10.634Z,97.91
2023-03-03T22:33:37.042Z,97.46
2023-03-03T22:36:03.609Z,97.25
2023-03-03T22:38:30.018Z,97.40
2023-03-03T22:40:56.410Z,98.36
2023-03-03T22:43:22.821Z,98.89
2023-03-03T22:45:50.488Z,98.47
2023-03-03T22:48:17.061Z,99.10
2023-03-03T22:50:45.476Z,98.72
2023-03-03T22:53:11.900Z,98.41
2023-03-03T22:55:38.332Z,98.56
2023-03-03T22:58:05.213Z,98.05
2023-03-03T23:00:33.286Z,97.99
2023-03-03T23:02:59.814Z,98.32
2023-03-03T23:05:26.462Z,98.19
2023-03-03T23:07:52.883Z,99.25
2023-03-03T23:10:19.357Z,98.94
2023-03-03T23:12:45.794Z,98.20
2023-03-03T23:15:15.452Z,97.75
2023-03-03T23:17:43.593Z,98.57
2023-03-03T23:20:13.130Z,98.48
2023-03-03T23:22:40.246Z,99.07
2023-03-03T23:25:07.402Z,99.18
2023-03-03T23:27:34.118Z,99.89
2023-03-03T23:30:00.517Z,100.00
2023-03-03T23:32:26.988Z,100.00
2023-03-03T23:34:54.250Z,100.00
2023-03-03T23:37:21.361Z,100.00
2023-03-03T23:39:48.123Z,100.00
2023-03-03T23:42:14.586Z,100.00
2023-03-03T23:44:41.176Z,100.00
2023-03-03T23:47:08.524Z,100.00
2023-03-03T23:54:41.784Z,100.00
2023-03-03T23:57:08.752Z,100.00
2023-03-03T23:59:35.721Z,100.00
